Time;durP1;ratioP1;P1;durP2;ratioP2;P2;SDS_P1;SDS_P2;PMS_P1;PMS_P2;Temp;Humidity;BMP_temperature;BMP_pressure;BME280_temperature;BME280_humidity;BME280_pressure;Samples;Min_cycle;Max_cycle;Signal;HPM_P1;HPM_P2
2024/01/01 00:00:23;;;;;;;4.97;3.50;;;;;;;15.97;100.00;101629.00;10639978;27;20047;-82
2024/01/01 00:05:46;;;;;;;5.43;3.28;;;;;;;15.85;100.00;101619.16;10647678;27;20043;-83
2024/01/01 00:11:10;;;;;;;5.28;3.33;;;;;;;15.87;100.00;101620.06;10609770;27;20372;-81
2024/01/01 00:16:33;;;;;;;4.50;3.10;;;;;;;15.97;100.00;101618.34;10595678;27;20048;-83
2024/01/01 00:21:55;;;;;;;4.05;3.60;;;;;;;15.75;100.00;101618.16;10594370;27;20063;-82
2024/01/01 00:27:20;;;;;;;5.47;4.03;;;;;;;15.76;100.00;101617.28;10607252;27;20047;-82
2024/01/01 00:32:42;;;;;;;4.45;2.92;;;;;;;15.74;100.00;101616.41;10625095;27;20121;-82
2024/01/01 00:38:05;;;;;;;3.45;2.28;;;;;;;15.62;100.00;101613.63;10637553;27;20406;-82
2024/01/01 00:43:29;;;;;;;6.18;3.65;;;;;;;15.50;100.00;101606.41;10636928;27;20035;-81
2024/01/01 00:48:54;;;;;;;6.25;4.00;;;;;;;15.45;100.00;101613.44;10647912;27;20058;-83
2024/01/01 00:54:18;;;;;;;5.60;3.38;;;;;;;15.44;100.00;101621.41;10594425;27;20120;-83
2024/01/01 00:59:43;;;;;;;6.18;4.63;;;;;;;15.42;100.00;101618.75;10602987;27;20035;-80
2024/01/01 01:05:06;;;;;;;8.63;6.30;;;;;;;15.39;100.00;101634.69;10600915;27;20039;-82
2024/01/01 01:10:30;;;;;;;11.02;8.00;;;;;;;15.39;100.00;101626.69;10607919;27;20043;-82
2024/01/01 01:15:54;;;;;;;9.98;5.97;;;;;;;15.48;100.00;101629.47;10635769;27;20086;-82
2024/01/01 01:21:18;;;;;;;2.97;2.55;;;;;;;15.52;100.00;101625.97;10635880;27;20118;-82
2024/01/01 01:26:43;;;;;;;9.60;8.57;;;;;;;15.51;100.00;101626.81;10647731;27;20142;-81
2024/01/01 01:32:09;;;;;;;12.00;8.45;;;;;;;15.63;100.00;101614.53;10634868;27;20054;-81
2024/01/01 01:37:31;;;;;;;5.03;4.30;;;;;;;15.79;100.00;101614.69;10648048;27;20129;-81
2024/01/01 01:42:54;;;;;;;8.95;5.88;;;;;;;15.87;100.00;101609.41;10648881;27;20050;-80
2024/01/01 01:48:19;;;;;;;9.88;7.57;;;;;;;15.88;100.00;101596.09;10634221;27;20138;-81
2024/01/01 01:53:42;;;;;;;69.45;62.03;;;;;;;16.02;100.00;101595.28;10580668;27;20051;-81
2024/01/01 01:59:06;;;;;;;16.30;14.43;;;;;;;16.06;100.00;101607.78;10578119;27;20075;-81
2024/01/01 02:04:32;;;;;;;9.82;6.93;;;;;;;15.98;100.00;101591.72;10591128;27;20142;-81
2024/01/01 02:09:55;;;;;;;10.65;8.55;;;;;;;15.93;100.00;101585.50;10561985;28;20495;-82
2024/01/01 02:15:20;;;;;;;46.60;42.65;;;;;;;15.68;100.00;101580.88;10568239;27;20387;-81
2024/01/01 02:20:46;;;;;;;65.90;59.05;;;;;;;15.52;100.00;101587.78;10604258;27;20372;-80
2024/01/01 02:26:16;;;;;;;57.08;51.92;;;;;;;15.44;100.00;101585.06;10588632;27;20391;-81
2024/01/01 02:31:39;;;;;;;21.08;19.05;;;;;;;15.35;100.00;101579.66;10578493;27;20100;-82
2024/01/01 02:37:03;;;;;;;9.93;8.93;;;;;;;15.29;100.00;101586.69;10607277;27;20104;-82
2024/01/01 02:42:28;;;;;;;15.65;12.52;;;;;;;15.26;100.00;101584.88;10600791;27;20053;-82
2024/01/01 02:47:53;;;;;;;8.50;5.65;;;;;;;15.28;100.00;101583.16;10625596;27;20043;-82
2024/01/01 02:53:15;;;;;;;20.13;18.10;;;;;;;15.30;100.00;101577.81;10609369;27;20287;-82
2024/01/01 02:58:40;;;;;;;20.42;18.23;;;;;;;15.30;100.00;101580.47;10640584;27;20406;-83
2024/01/01 03:04:04;;;;;;;12.77;11.40;;;;;;;15.25;100.00;101579.56;10619040;27;20067;-82
2024/01/01 03:09:27;;;;;;;14.90;11.13;;;;;;;15.29;100.00;101578.72;10637121;27;20062;-83
2024/01/01 03:14:52;;;;;;;14.18;8.20;;;;;;;15.36;100.00;101586.75;10608934;27;20150;-83
2024/01/01 03:20:14;;;;;;;9.52;7.85;;;;;;;15.29;100.00;101584.94;10591012;27;20074;-82
2024/01/01 03:25:37;;;;;;;7.40;4.50;;;;;;;15.24;100.00;101583.09;10593023;27;20043;-81
2024/01/01 03:31:01;;;;;;;5.85;5.07;;;;;;;15.30;100.00;101584.03;10618445;27;20625;-82
2024/01/01 03:36:23;;;;;;;13.63;12.05;;;;;;;15.25;100.00;101585.75;10604367;27;20467;-83
2024/01/01 03:41:46;;;;;;;5.53;4.40;;;;;;;15.24;100.00;101585.75;10608832;27;20047;-83
2024/01/01 03:47:11;;;;;;;12.50;7.82;;;;;;;15.36;100.00;101578.75;10612653;27;20350;-83
2024/01/01 03:52:34;;;;;;;64.85;58.75;;;;;;;15.32;100.00;101578.72;10601925;27;20051;-83
2024/01/01 03:57:57;;;;;;;6.15;4.68;;;;;;;15.12;100.00;101579.44;10628526;27;20058;-83
2024/01/01 04:03:21;;;;;;;5.78;4.68;;;;;;;15.00;100.00;101567.78;10624478;27;20115;-82
2024/01/01 04:08:44;;;;;;;8.02;4.70;;;;;;;15.17;100.00;101568.81;10626044;27;20399;-83
2024/01/01 04:14:06;;;;;;;10.88;8.25;;;;;;;15.13;100.00;101570.59;10610971;27;20066;-83
2024/01/01 04:19:32;;;;;;;28.88;25.73;;;;;;;14.98;100.00;101580.16;10599474;27;20043;-83
2024/01/01 04:24:54;;;;;;;12.23;10.88;;;;;;;14.99;100.00;101584.59;10602578;27;20047;-82
2024/01/01 04:30:16;;;;;;;9.00;7.05;;;;;;;15.03;100.00;101581.97;10624274;27;20047;-82
2024/01/01 04:35:43;;;;;;;6.78;5.75;;;;;;;15.07;100.00;101591.78;10614981;27;20511;-83
2024/01/01 04:41:08;;;;;;;7.50;5.20;;;;;;;15.31;100.00;101590.25;10605310;27;20047;-83
2024/01/01 04:46:31;;;;;;;8.48;5.25;;;;;;;15.62;100.00;101588.81;10610402;27;20050;-81
2024/01/01 04:51:55;;;;;;;8.15;4.93;;;;;;;15.94;100.00;101580.19;10616893;27;20047;-82
2024/01/01 04:57:18;;;;;;;7.80;5.00;;;;;;;16.13;100.00;101588.28;10623190;27;20095;-82
2024/01/01 05:02:40;;;;;;;7.40;4.53;;;;;;;16.21;100.00;101586.56;10611720;27;20150;-81
2024/01/01 05:08:05;;;;;;;9.30;4.50;;;;;;;16.21;100.00;101581.22;10622912;27;20046;-80
2024/01/01 05:13:28;;;;;;;8.27;5.22;;;;;;;16.13;100.00;101582.94;10628243;27;20043;-81
2024/01/01 05:18:50;;;;;;;9.18;5.32;;;;;;;16.02;100.00;101580.19;10626006;27;20038;-81
2024/01/01 05:24:14;;;;;;;7.60;5.32;;;;;;;16.01;100.00;101582.88;10613174;27;20051;-80
2024/01/01 05:29:37;;;;;;;6.75;5.10;;;;;;;16.00;100.00;101591.75;10628950;27;20051;-81
2024/01/01 05:34:59;;;;;;;7.93;5.10;;;;;;;16.10;100.00;101588.25;10639805;27;20054;-83
2024/01/01 05:40:29;;;;;;;8.18;5.32;;;;;;;16.36;100.00;101591.94;10633282;27;20130;-79
2024/01/01 05:45:52;;;;;;;7.15;4.50;;;;;;;16.46;100.00;101584.91;10625870;27;20544;-82
2024/01/01 05:51:16;;;;;;;6.05;4.95;;;;;;;16.51;100.00;101586.72;10613489;27;20047;-82
2024/01/01 05:56:40;;;;;;;8.68;5.57;;;;;;;16.70;100.00;101585.03;10632910;27;20061;-81
2024/01/01 06:02:02;;;;;;;6.93;5.22;;;;;;;16.81;100.00;101588.63;10638604;27;20043;-81
2024/01/01 06:07:27;;;;;;;7.28;5.00;;;;;;;17.01;100.00;101594.00;10611885;27;20137;-81
2024/01/01 06:12:51;;;;;;;8.05;5.10;;;;;;;17.13;100.00;101596.75;10595212;27;20048;-81
2024/01/01 06:18:13;;;;;;;7.88;5.00;;;;;;;17.14;100.00;101593.16;10615059;27;20041;-81
2024/01/01 06:23:36;;;;;;;6.88;4.82;;;;;;;17.36;100.00;101591.41;10605132;27;20105;-82
2024/01/01 06:29:02;;;;;;;8.45;5.03;;;;;;;17.47;100.00;101587.88;10590610;27;20376;-82
2024/01/01 06:34:25;;;;;;;6.53;4.85;;;;;;;17.59;100.00;101581.63;10605246;27;20090;-82
2024/01/01 06:39:47;;;;;;;6.20;4.70;;;;;;;17.80;100.00;101586.13;10609796;27;20055;-81
2024/01/01 06:45:11;;;;;;;6.22;5.10;;;;;;;17.96;100.00;101597.69;10605010;27;20043;-81
2024/01/01 06:50:34;;;;;;;8.00;5.53;;;;;;;18.05;100.00;101595.03;10605016;27;20078;-81
2024/01/01 06:55:56;;;;;;;7.47;4.80;;;;;;;18.04;100.00;101599.47;10590126;27;20070;-81
2024/01/01 07:01:20;;;;;;;6.72;5.07;;;;;;;18.02;100.00;101603.91;10615721;27;20050;-82
2024/01/01 07:06:43;;;;;;;7.20;5.55;;;;;;;18.04;100.00;101602.13;10624560;27;20106;-81
2024/01/01 07:12:19;;;;;;;7.90;5.43;;;;;;;18.12;100.00;101594.09;10603470;27;20043;-82
2024/01/01 07:17:43;;;;;;;7.18;4.82;;;;;;;18.33;100.00;101592.25;10620864;27;20078;-82
2024/01/01 07:23:06;;;;;;;7.22;4.90;;;;;;;18.56;100.00;101596.69;10604398;27;20483;-83
2024/01/01 07:28:28;;;;;;;5.72;4.65;;;;;;;18.93;100.00;101609.00;10614545;27;20831;-83
2024/01/01 07:33:52;;;;;;;6.70;4.72;;;;;;;19.98;100.00;101607.38;10602385;27;20415;-82
2024/01/01 07:39:19;;;;;;;5.43;4.78;;;;;;;21.22;100.00;101616.66;10591521;27;20057;-82
2024/01/01 07:44:41;;;;;;;6.30;4.53;;;;;;;21.16;100.00;101616.75;10608584;27;20047;-82
2024/01/01 07:50:08;;;;;;;6.88;4.68;;;;;;;20.99;100.00;101630.38;10614515;27;20058;-81
2024/01/01 07:55:30;;;;;;;6.30;4.38;;;;;;;21.18;100.00;101625.69;10612096;27;20085;-81
2024/01/01 08:00:55;;;;;;;6.90;4.30;;;;;;;20.91;100.00;101629.59;10581936;27;20047;-81
2024/01/01 08:06:20;;;;;;;5.30;4.35;;;;;;;21.07;100.00;101624.88;10615576;27;20054;-82
2024/01/01 08:11:43;;;;;;;6.13;4.07;;;;;;;21.20;99.50;101618.47;10596867;27;20124;-82
2024/01/01 08:17:06;;;;;;;6.03;4.30;;;;;;;21.16;99.19;101618.53;10607138;27;20532;-82
2024/01/01 08:22:30;;;;;;;4.47;3.72;;;;;;;21.48;98.23;101608.19;10623042;27;20047;-82
2024/01/01 08:27:53;;;;;;;7.45;3.97;;;;;;;21.37;98.71;101613.75;10618327;27;20407;-83
2024/01/01 08:33:16;;;;;;;5.97;4.13;;;;;;;21.26;100.00;101625.56;10609794;27;20059;-83
2024/01/01 08:38:40;;;;;;;5.20;3.90;;;;;;;21.11;100.00;101621.25;10633398;27;20043;-84
2024/01/01 08:44:06;;;;;;;6.93;3.80;;;;;;;21.00;100.00;101629.44;10606050;27;20038;-82
2024/01/01 08:49:29;;;;;;;5.97;3.60;;;;;;;20.95;100.00;101638.47;10595318;27;20047;-82
2024/01/01 08:54:53;;;;;;;5.18;4.00;;;;;;;20.67;100.00;101630.81;10570502;27;20040;-84
2024/01/01 09:00:16;;;;;;;4.57;3.70;;;;;;;20.63;100.00;101625.47;10565328;28;20142;-83
2024/01/01 09:05:43;;;;;;;20.92;18.90;;;;;;;20.95;100.00;101628.63;10568219;27;20567;-83
2024/01/01 09:11:07;;;;;;;8.20;5.90;;;;;;;21.36;100.00;101625.41;10577024;27;20066;-84
2024/01/01 09:16:31;;;;;;;9.48;7.22;;;;;;;21.92;96.79;101609.28;10594095;27;20514;-83
2024/01/01 09:21:54;;;;;;;7.25;5.25;;;;;;;22.36;92.07;101604.00;10565239;28;20048;-83
2024/01/01 09:27:19;;;;;;;13.98;12.57;;;;;;;23.16;84.11;101589.75;10588983;27;20051;-83
2024/01/01 09:32:41;;;;;;;6.53;5.15;;;;;;;23.88;78.06;101587.09;10578172;27;20491;-84
2024/01/01 09:38:04;;;;;;;5.22;4.05;;;;;;;25.17;64.21;101569.00;10592597;27;20104;-85
2024/01/01 09:43:30;;;;;;;4.50;4.10;;;;;;;26.87;51.58;101552.13;10628370;27;20116;-82
2024/01/01 09:48:53;;;;;;;11.80;6.85;;;;;;;28.02;45.91;101539.19;10563772;28;20050;-84
2024/01/01 09:54:16;;;;;;;6.30;4.53;;;;;;;28.51;43.70;101524.28;10636508;27;20042;-83
2024/01/01 09:59:40;;;;;;;6.25;4.85;;;;;;;28.10;42.74;101525.25;10599563;27;20082;-83
2024/01/01 10:05:13;;;;;;;3.88;3.20;;;;;;;27.06;43.36;101507.09;10614297;27;20104;-83
2024/01/01 10:10:35;;;;;;;8.50;6.00;;;;;;;26.78;44.18;101501.88;10604788;27;20047;-84
2024/01/01 10:15:59;;;;;;;4.97;3.88;;;;;;;26.08;44.10;101490.13;10592877;27;20498;-83
2024/01/01 10:21:28;;;;;;;4.72;3.85;;;;;;;25.73;44.53;101489.56;10591720;27;20425;-83
2024/01/01 10:26:51;;;;;;;4.82;4.32;;;;;;;25.70;44.68;101492.41;10600689;27;20074;-84
2024/01/01 10:32:26;;;;;;;7.32;6.32;;;;;;;25.37;45.00;101486.31;10572278;27;20372;-82
2024/01/01 10:37:49;;;;;;;5.35;4.85;;;;;;;25.21;44.82;101471.53;10602457;27;20055;-82
2024/01/01 10:43:13;;;;;;;7.85;5.60;;;;;;;25.93;44.46;101471.75;10627708;27;20047;-82
2024/01/01 10:48:39;;;;;;;20.02;12.82;;;;;;;27.27;41.53;101461.94;10600688;27;20529;-85
2024/01/01 10:54:25;;;;;;;6.72;4.78;;;;;;;28.11;39.58;101454.56;10601785;27;20058;-87
2024/01/01 10:59:58;;;;;;;12.90;9.43;;;;;;;27.23;39.48;101455.78;10602258;27;20043;-88
2024/01/01 11:05:32;;;;;;;10.85;7.60;;;;;;;25.77;45.75;101455.19;10618638;27;20083;-87
2024/01/01 11:10:56;;;;;;;6.47;5.00;;;;;;;24.85;50.77;101448.41;10589730;27;20043;-86
2024/01/01 11:16:19;;;;;;;6.82;6.13;;;;;;;24.30;57.24;101447.41;10594477;27;20053;-86
2024/01/01 11:21:44;;;;;;;5.97;4.32;;;;;;;24.40;57.10;101439.94;10627692;27;20051;-86
2024/01/01 11:27:24;;;;;;;6.65;4.05;;;;;;;24.15;60.35;101431.66;10616209;27;20051;-87
2024/01/01 11:32:47;;;;;;;5.57;4.40;;;;;;;23.25;66.13;101427.84;10589593;28;20047;-86
2024/01/01 11:38:11;;;;;;;5.20;3.67;;;;;;;22.58;73.49;101416.00;10596036;27;20047;-86
2024/01/01 11:43:35;;;;;;;7.22;3.88;;;;;;;22.14;83.30;101408.94;10612798;27;20116;-87
2024/01/01 11:48:59;;;;;;;5.97;4.30;;;;;;;21.97;91.83;101414.69;10574862;27;20088;-85
2024/01/01 11:54:26;;;;;;;7.95;4.35;;;;;;;21.84;100.00;101402.41;10605551;27;20035;-84
2024/01/01 11:59:49;;;;;;;7.72;4.43;;;;;;;22.23;100.00;101414.13;10612938;27;20369;-85
2024/01/01 12:05:12;;;;;;;4.43;3.53;;;;;;;22.25;100.00;101401.56;10637109;27;20043;-83
2024/01/01 12:10:41;;;;;;;9.00;5.00;;;;;;;22.16;98.51;101413.38;10608592;27;20055;-86
2024/01/01 12:16:19;;;;;;;5.63;5.13;;;;;;;21.46;99.70;101414.75;10599696;27;20082;-84
2024/01/01 12:21:42;;;;;;;4.97;3.90;;;;;;;21.31;100.00;101408.81;10602214;27;20047;-83
2024/01/01 12:27:06;;;;;;;5.55;3.90;;;;;;;21.75;96.38;101407.94;10641462;27;20510;-83
2024/01/01 12:32:30;;;;;;;6.05;3.90;;;;;;;21.66;95.62;101405.47;10582350;27;20414;-84
2024/01/01 12:37:53;;;;;;;6.25;3.53;;;;;;;21.56;100.00;101407.44;10609756;27;20047;-83
2024/01/01 12:43:17;;;;;;;7.32;4.97;;;;;;;21.81;100.00;101405.13;10616281;27;20329;-84
2024/01/01 12:48:44;;;;;;;14.55;10.75;;;;;;;22.00;100.00;101401.16;10637505;27;20520;-86
2024/01/01 12:54:06;;;;;;;6.75;5.28;;;;;;;21.90;100.00;101418.41;10632394;27;20402;-86
2024/01/01 12:59:31;;;;;;;15.68;10.52;;;;;;;21.73;100.00;101418.72;10613858;27;20071;-86
2024/01/01 13:04:53;;;;;;;8.05;5.97;;;;;;;21.75;96.26;101424.06;10607018;27;20059;-87
2024/01/01 13:10:16;;;;;;;12.30;8.30;;;;;;;21.80;89.69;101419.47;10590503;27;20487;-86
2024/01/01 13:15:40;;;;;;;7.90;5.90;;;;;;;22.21;79.13;101419.53;10602549;27;20047;-88
2024/01/01 13:21:03;;;;;;;3.80;3.45;;;;;;;22.25;84.17;101406.94;10635640;27;20115;-85
2024/01/01 13:26:27;;;;;;;4.95;3.35;;;;;;;21.92;95.49;101410.31;10591662;27;20065;-85
2024/01/01 13:31:52;;;;;;;5.97;3.40;;;;;;;21.80;96.18;101420.38;10606558;27;20082;-86
2024/01/01 13:37:14;;;;;;;4.60;3.03;;;;;;;21.74;99.22;101420.50;10592397;27;20084;-84
2024/01/01 13:42:37;;;;;;;5.05;2.63;;;;;;;21.90;98.43;101415.72;10591270;27;20054;-84
2024/01/01 13:48:00;;;;;;;7.10;3.03;;;;;;;21.65;100.00;101427.88;10589218;27;20073;-83
2024/01/01 13:53:23;;;;;;;3.78;3.05;;;;;;;21.65;100.00;101427.88;10614682;27;20046;-83
2024/01/01 13:58:46;;;;;;;5.82;2.72;;;;;;;21.58;100.00;101431.59;10635303;27;20137;-85
2024/01/01 14:04:11;;;;;;;5.40;2.17;;;;;;;21.13;100.00;101434.16;10655017;27;20039;-83
2024/01/01 14:09:35;;;;;;;6.45;2.67;;;;;;;20.50;100.00;101431.56;10624479;27;20104;-83
2024/01/01 14:14:58;;;;;;;6.30;2.70;;;;;;;19.90;100.00;101433.22;10647822;27;20089;-84
2024/01/01 14:20:22;;;;;;;5.65;2.80;;;;;;;19.67;100.00;101440.66;10612988;27;20175;-85
2024/01/01 14:25:45;;;;;;;5.68;2.65;;;;;;;19.85;100.00;101441.31;10638698;27;20043;-83
2024/01/01 14:31:08;;;;;;;5.93;3.45;;;;;;;19.73;100.00;101440.56;10623717;27;20059;-84
2024/01/01 14:36:32;;;;;;;8.65;3.65;;;;;;;19.69;100.00;101445.06;10609761;27;20571;-86
2024/01/01 14:41:54;;;;;;;12.38;4.60;;;;;;;19.67;100.00;101444.22;10603849;27;20142;-83
2024/01/01 14:47:17;;;;;;;5.20;3.22;;;;;;;19.37;100.00;101448.03;10603111;27;20100;-87
2024/01/01 14:52:42;;;;;;;8.40;3.75;;;;;;;19.23;100.00;101447.28;10627699;27;20306;-90
2024/01/01 14:58:05;;;;;;;6.70;2.60;;;;;;;18.90;100.00;101450.25;10644924;27;20498;-86
2024/01/01 15:03:27;;;;;;;5.22;3.13;;;;;;;18.72;100.00;101456.59;10588793;27;20039;-79
2024/01/01 15:08:51;;;;;;;4.90;3.15;;;;;;;18.75;100.00;101463.72;10608464;27;20395;-86
2024/01/01 15:14:14;;;;;;;13.95;8.48;;;;;;;18.29;100.00;101467.53;10630392;27;20088;-82
2024/01/01 15:19:36;;;;;;;9.88;4.15;;;;;;;18.08;100.00;101474.75;10611179;27;20051;-83
2024/01/01 15:25:00;;;;;;;11.98;6.22;;;;;;;17.82;100.00;101472.16;10572987;27;20054;-85
2024/01/01 15:30:23;;;;;;;7.68;4.72;;;;;;;17.73;100.00;101477.50;10604434;27;20050;-86
2024/01/01 15:35:45;;;;;;;8.25;3.90;;;;;;;17.89;100.00;101488.16;10596956;27;20047;-88
2024/01/01 15:41:10;;;;;;;34.28;30.52;;;;;;;17.89;100.00;101488.16;10590329;27;20055;-87
2024/01/01 15:46:33;;;;;;;37.72;34.00;;;;;;;17.74;100.00;101492.63;10553662;27;20064;-87
2024/01/01 15:51:56;;;;;;;43.92;34.97;;;;;;;17.51;100.00;101498.91;10570446;27;20050;-87
2024/01/01 15:57:21;;;;;;;34.50;29.17;;;;;;;17.16;100.00;101507.78;10609315;27;20134;-84
2024/01/01 16:02:45;;;;;;;10.57;7.63;;;;;;;16.81;100.00;101521.06;10593688;27;20043;-83
2024/01/01 16:08:07;;;;;;;17.13;15.35;;;;;;;16.68;100.00;101523.69;10567091;28;20070;-83
2024/01/01 16:13:31;;;;;;;9.00;6.88;;;;;;;16.68;100.00;101531.69;10579458;27;20066;-83
2024/01/01 16:18:56;;;;;;;28.50;23.38;;;;;;;16.58;100.00;101539.63;10635304;27;20051;-85
2024/01/01 16:24:18;;;;;;;20.88;16.80;;;;;;;16.45;100.00;101544.03;10609662;27;20458;-86
2024/01/01 16:29:45;;;;;;;11.27;9.52;;;;;;;16.20;100.00;101547.47;10594483;27;20051;-84
2024/01/01 16:35:08;;;;;;;12.50;6.07;;;;;;;16.21;100.00;101557.25;10603336;27;20066;-87
2024/01/01 16:40:31;;;;;;;10.32;7.10;;;;;;;16.08;100.00;101547.41;10564414;28;20142;-83
2024/01/01 16:45:55;;;;;;;8.95;4.35;;;;;;;15.89;100.00;101562.34;10593887;27;21625;-85
2024/01/01 16:51:17;;;;;;;14.90;6.88;;;;;;;15.63;100.00;101566.59;10589293;27;20234;-82
2024/01/01 16:56:40;;;;;;;18.00;11.57;;;;;;;15.59;100.00;101568.38;10575873;27;20063;-84
2024/01/01 17:02:04;;;;;;;8.75;6.25;;;;;;;15.81;100.00;101567.66;10580380;27;20047;-81
2024/01/01 17:07:27;;;;;;;9.20;6.57;;;;;;;15.94;100.00;101577.53;10588636;27;20047;-86
2024/01/01 17:12:50;;;;;;;14.88;9.43;;;;;;;15.88;100.00;101587.25;10607749;27;20051;-85
2024/01/01 17:18:14;;;;;;;12.13;7.45;;;;;;;15.89;100.00;101586.31;10584146;27;20038;-82
2024/01/01 17:23:37;;;;;;;13.52;11.55;;;;;;;15.87;100.00;101590.78;10573918;27;20062;-81
2024/01/01 17:28:59;;;;;;;14.70;11.38;;;;;;;15.66;100.00;101585.28;10549405;27;20043;-82
2024/01/01 17:34:24;;;;;;;17.92;12.30;;;;;;;15.55;100.00;101595.84;10612823;27;20057;-83
2024/01/01 17:39:47;;;;;;;74.60;51.50;;;;;;;15.46;100.00;101587.75;10580468;27;20051;-85
2024/01/01 17:45:10;;;;;;;61.28;43.92;;;;;;;15.31;100.00;101598.22;10592420;27;20052;-83
2024/01/01 17:50:34;;;;;;;25.13;16.90;;;;;;;15.16;100.00;101599.84;10597314;27;20059;-82
2024/01/01 17:55:57;;;;;;;18.15;13.35;;;;;;;14.97;100.00;101597.88;10604214;27;20039;-83
2024/01/01 18:01:20;;;;;;;13.35;9.35;;;;;;;14.84;100.00;101598.59;10604898;27;20055;-83
2024/01/01 18:06:46;;;;;;;45.13;40.25;;;;;;;14.80;100.00;101591.50;10604012;27;20071;-83
2024/01/01 18:12:09;;;;;;;42.72;38.63;;;;;;;14.90;100.00;101611.09;10603729;27;20043;-84
2024/01/01 18:17:32;;;;;;;14.32;11.43;;;;;;;14.74;100.00;101605.59;10600529;27;20051;-85
2024/01/01 18:22:58;;;;;;;10.40;6.80;;;;;;;14.97;100.00;101605.84;10598432;27;20047;-85
2024/01/01 18:28:20;;;;;;;10.07;8.93;;;;;;;15.10;100.00;101604.22;10616167;27;20057;-81
2024/01/01 18:33:42;;;;;;;13.05;9.15;;;;;;;15.08;100.00;101601.56;10635573;27;20047;-82
2024/01/01 18:39:09;;;;;;;12.38;7.93;;;;;;;15.04;100.00;101604.16;10623388;27;20098;-82
2024/01/01 18:44:31;;;;;;;14.80;9.60;;;;;;;14.85;100.00;101603.06;10611789;27;20067;-84
2024/01/01 18:49:55;;;;;;;16.38;9.82;;;;;;;14.79;100.00;101610.97;10594605;27;20444;-84
2024/01/01 18:55:20;;;;;;;11.10;6.28;;;;;;;14.70;100.00;101602.91;10583266;27;20657;-85
2024/01/01 19:00:43;;;;;;;13.93;10.40;;;;;;;14.70;100.00;101608.22;10606587;27;20474;-84
2024/01/01 19:06:13;;;;;;;10.75;7.75;;;;;;;14.60;100.00;101604.53;10634898;27;20162;-83
2024/01/01 19:11:42;;;;;;;10.50;8.27;;;;;;;14.47;100.00;101615.88;10587069;27;20441;-84
2024/01/01 19:17:05;;;;;;;10.55;7.20;;;;;;;14.35;100.00;101613.91;10611786;27;20058;-84
2024/01/01 19:22:27;;;;;;;7.18;5.60;;;;;;;14.31;100.00;101609.41;10566254;27;20059;-86
2024/01/01 19:27:52;;;;;;;9.23;4.60;;;;;;;14.45;100.00;101601.66;10604632;27;20039;-84
2024/01/01 19:33:16;;;;;;;10.65;6.25;;;;;;;14.25;100.00;101603.13;10632481;27;20091;-84
2024/01/01 19:38:38;;;;;;;12.80;10.05;;;;;;;14.11;100.00;101602.91;10550552;28;20047;-86
2024/01/01 19:44:02;;;;;;;12.98;10.55;;;;;;;14.00;100.00;101601.88;10572659;27;20050;-84
2024/01/01 19:49:25;;;;;;;12.52;10.45;;;;;;;13.90;100.00;101608.81;10613637;28;20062;-87
2024/01/01 19:54:47;;;;;;;15.40;12.82;;;;;;;13.86;100.00;101619.34;10603940;27;20100;-84
2024/01/01 20:00:15;;;;;;;14.15;9.48;;;;;;;13.87;100.00;101623.78;10589185;28;20370;-84
2024/01/01 20:05:37;;;;;;;8.23;6.18;;;;;;;13.94;100.00;101621.28;10592279;27;20042;-83
2024/01/01 20:11:00;;;;;;;24.90;19.85;;;;;;;14.15;100.00;101606.53;10633754;27;20035;-83
2024/01/01 20:16:25;;;;;;;41.72;26.33;;;;;;;14.22;100.00;101614.63;10642333;27;20038;-83
2024/01/01 20:21:49;;;;;;;16.42;11.43;;;;;;;14.17;100.00;101603.03;10619712;27;20096;-83
2024/01/01 20:27:11;;;;;;;14.73;9.40;;;;;;;14.15;100.00;101599.47;10619126;27;20096;-83
2024/01/01 20:32:35;;;;;;;10.73;7.75;;;;;;;14.12;100.00;101594.09;10579317;27;20058;-80
2024/01/01 20:37:58;;;;;;;28.77;24.83;;;;;;;14.01;100.00;101600.13;10633613;27;20051;-82
2024/01/01 20:43:22;;;;;;;17.63;12.20;;;;;;;13.98;100.00;101592.13;10615828;27;20054;-81
2024/01/01 20:48:47;;;;;;;11.07;8.88;;;;;;;13.91;100.00;101585.84;10579823;27;20047;-81
2024/01/01 20:54:10;;;;;;;11.63;9.07;;;;;;;14.01;100.00;101587.75;10586505;27;20075;-81
2024/01/01 20:59:32;;;;;;;8.75;6.32;;;;;;;13.70;100.00;101591.69;10603555;27;20046;-81
2024/01/01 21:05:01;;;;;;;17.27;12.05;;;;;;;13.70;100.00;101598.75;10609360;27;20051;-82
2024/01/01 21:10:26;;;;;;;35.00;31.77;;;;;;;13.70;100.00;101586.38;10609239;27;20051;-81
2024/01/01 21:15:48;;;;;;;21.73;18.63;;;;;;;13.90;100.00;101597.31;10565069;28;20284;-82
2024/01/01 21:21:12;;;;;;;18.10;16.02;;;;;;;14.02;100.00;101588.63;10656332;27;20050;-81
2024/01/01 21:26:34;;;;;;;10.07;7.50;;;;;;;13.74;100.00;101592.63;10610434;27;20055;-81
2024/01/01 21:31:57;;;;;;;11.23;8.50;;;;;;;13.61;100.00;101590.63;10598957;27;20047;-82
2024/01/01 21:37:21;;;;;;;9.93;6.82;;;;;;;13.47;100.00;101587.75;10644957;27;20100;-84
2024/01/01 21:42:43;;;;;;;11.50;7.07;;;;;;;13.39;100.00;101590.25;10604510;27;20047;-83
2024/01/01 21:48:07;;;;;;;6.47;4.78;;;;;;;13.40;100.00;101584.09;10614652;27;20103;-84
2024/01/01 21:53:32;;;;;;;7.00;5.25;;;;;;;13.50;100.00;101586.06;10620433;27;20099;-84
2024/01/01 21:58:55;;;;;;;4.43;3.38;;;;;;;13.41;100.00;101593.84;10638198;27;20058;-82
2024/01/01 22:04:18;;;;;;;8.95;8.10;;;;;;;13.35;100.00;101576.94;10551252;28;20752;-82
2024/01/01 22:09:42;;;;;;;27.77;23.25;;;;;;;13.25;100.00;101585.63;10569216;27;20047;-79
2024/01/01 22:15:05;;;;;;;11.25;9.70;;;;;;;13.54;100.00;101584.34;10603940;27;20077;-80
2024/01/01 22:20:28;;;;;;;7.18;4.95;;;;;;;13.86;100.00;101582.19;10605492;27;20071;-80
2024/01/01 22:25:52;;;;;;;16.10;14.27;;;;;;;13.73;100.00;101582.88;10591810;27;20050;-83
2024/01/01 22:31:14;;;;;;;8.10;6.78;;;;;;;13.51;100.00;101590.50;10600318;27;20051;-80
2024/01/01 22:36:38;;;;;;;4.38;3.28;;;;;;;13.31;100.00;101580.41;10607801;27;20046;-82
2024/01/01 22:42:06;;;;;;;9.85;7.72;;;;;;;13.18;100.00;101581.97;10644402;27;20134;-81
2024/01/01 22:47:29;;;;;;;13.73;11.98;;;;;;;13.03;100.00;101577.22;10619091;27;20088;-81
2024/01/01 22:52:52;;;;;;;5.97;4.25;;;;;;;13.07;100.00;101579.06;10631321;27;20061;-80
2024/01/01 22:58:16;;;;;;;7.90;4.80;;;;;;;13.05;100.00;101583.47;10646673;27;20691;-80
2024/01/01 23:03:38;;;;;;;14.73;10.90;;;;;;;13.07;100.00;101580.81;10632172;27;20478;-81
2024/01/01 23:09:01;;;;;;;5.18;4.15;;;;;;;13.14;100.00;101585.41;10610817;27;20455;-81
2024/01/01 23:14:25;;;;;;;10.98;9.88;;;;;;;13.24;100.00;101591.78;10589552;27;20051;-81
2024/01/01 23:19:48;;;;;;;20.08;17.73;;;;;;;13.16;100.00;101591.63;10589194;27;20080;-81
2024/01/01 23:25:11;;;;;;;11.02;7.50;;;;;;;13.15;100.00;101573.94;10589087;27;20126;-81
2024/01/01 23:30:35;;;;;;;9.40;5.13;;;;;;;13.18;100.00;101579.31;10603109;28;20062;-80
2024/01/01 23:35:57;;;;;;;6.03;3.65;;;;;;;13.40;100.00;101572.59;10624995;27;20030;-80
2024/01/01 23:41:20;;;;;;;4.13;3.42;;;;;;;13.47;100.00;101579.78;10608343;28;20043;-80
2024/01/01 23:46:43;;;;;;;7.18;3.90;;;;;;;13.20;100.00;101576.66;10631092;27;20134;-81
2024/01/01 23:52:06;;;;;;;5.00;3.63;;;;;;;13.20;100.00;101582.84;10611676;27;20055;-80
2024/01/01 23:57:29;;;;;;;52.38;20.92;;;;;;;13.18;100.00;101581.97;10611373;27;20039;-80
